Lewisetta, Virginia
Current Conditions -  °F | °C
As of 4:53 PM on Thursday 23 Oct 2014 (Local Time) from KNUI Reporting Station
Overcast Overcast  
Wind Chill: 63°   Ceiling: 4900
Heat Index: 63°   Visibility: 10mi
Dew Point: 44°   Wind: 10mph
Humidity: 50%   Direction: 300°WNW
Pressure: 29.83"   Gusts: 21mph
Location:  37.9843°N, 76.5087°W
Report Text: KNUI 232053Z AUTO 30009G18KT 280V340 10SM OVC049 17/07 A2983 RMK AO2 SLP099 T01720067 55000
Loading
Personal Weather Stations






























Interactive Weather Map
Tropical Storm Tracking
New forecast layout! Learn more

10-Day Weather Forecast

Advertisements
Track Severe Weather on mobile